Time;durP1;ratioP1;P1;durP2;ratioP2;P2;SDS_P1;SDS_P2;PMS_P1;PMS_P2;Temp;Humidity;BMP_temperature;BMP_pressure;BME280_temperature;BME280_humidity;BME280_pressure;Samples;Min_cycle;Max_cycle;Signal;HPM_P1;HPM_P2
2023/10/03 00:00:31;;;;;;;8.43;5.28;;;;;;;24.86;49.20;101122.31;5050405;28;20422;-67
2023/10/03 00:02:58;;;;;;;8.57;4.78;;;;;;;24.87;49.20;101122.09;5054934;28;20071;-68
2023/10/03 00:05:33;;;;;;;8.13;4.85;;;;;;;24.83;49.17;101104.91;5054572;28;20032;-69
2023/10/03 00:08:06;;;;;;;7.25;5.03;;;;;;;24.80;49.18;101100.00;5058306;28;20052;-69
2023/10/03 00:10:33;;;;;;;8.77;5.00;;;;;;;24.74;49.06;101090.16;5053924;28;20109;-67
2023/10/03 00:12:59;;;;;;;7.43;4.78;;;;;;;24.86;49.21;101093.00;5055476;28;20055;-67
2023/10/03 00:15:26;;;;;;;8.27;5.30;;;;;;;24.87;49.24;101094.66;5056589;28;20087;-68
2023/10/03 00:17:53;;;;;;;9.30;5.15;;;;;;;24.85;49.22;101088.72;5050661;28;20057;-67
2023/10/03 00:20:20;;;;;;;10.40;5.38;;;;;;;24.88;49.09;101093.63;5053970;28;20052;-67
2023/10/03 00:22:46;;;;;;;7.13;4.63;;;;;;;24.84;49.19;101085.22;5050745;28;20083;-67
2023/10/03 00:25:21;;;;;;;7.72;5.05;;;;;;;24.82;48.79;101076.63;5039382;28;20052;-67
2023/10/03 00:27:59;;;;;;;9.13;5.35;;;;;;;24.86;48.87;101064.53;5051236;28;20040;-67
2023/10/03 00:30:25;;;;;;;11.20;5.13;;;;;;;24.85;49.03;101059.41;5058488;28;20134;-67
2023/10/03 00:32:52;;;;;;;6.97;4.88;;;;;;;24.80;48.95;101045.91;5059212;28;20776;-67
2023/10/03 00:35:20;;;;;;;11.73;5.10;;;;;;;24.84;49.11;101057.78;5058224;28;20097;-67
2023/10/03 00:37:47;;;;;;;8.45;5.18;;;;;;;24.82;48.94;101059.84;5052687;28;20144;-67
2023/10/03 00:42:57;;;;;;;10.30;5.25;;;;;;;24.87;48.89;101023.53;5052706;28;20080;-67
2023/10/03 00:45:29;;;;;;;7.90;5.28;;;;;;;24.87;48.95;101018.22;5050135;28;20120;-67
2023/10/03 00:47:58;;;;;;;8.50;4.75;;;;;;;24.86;48.82;101005.94;5052286;28;20049;-67
2023/10/03 00:50:28;;;;;;;10.17;5.33;;;;;;;24.85;49.08;100985.66;5053080;28;20095;-67
2023/10/03 00:52:55;;;;;;;;;;;;;;;24.86;49.00;100973.97;5052058;28;20948;-67
2023/10/03 00:55:32;;;;;;;8.98;5.28;;;;;;;24.85;48.86;100961.69;5054027;28;20394;-67
2023/10/03 01:00:31;;;;;;;9.52;5.75;;;;;;;24.87;48.96;100940.16;5054849;28;20062;-67
2023/10/03 01:02:57;;;;;;;8.70;5.05;;;;;;;24.87;48.90;100917.00;5048569;28;20041;-67
2023/10/03 01:05:23;;;;;;;10.15;5.65;;;;;;;24.85;48.81;100902.25;5037346;28;20186;-67
2023/10/03 01:07:49;;;;;;;8.20;5.05;;;;;;;24.86;48.84;100894.06;5056191;28;20055;-69
2023/10/03 01:10:20;;;;;;;8.55;5.07;;;;;;;24.87;48.96;100884.22;5055313;28;20056;-66
2023/10/03 01:12:48;;;;;;;11.68;5.10;;;;;;;24.86;49.15;100890.56;5036123;28;20057;-67
2023/10/03 01:15:22;;;;;;;9.13;5.65;;;;;;;24.84;49.12;100896.13;5054723;28;20070;-67
2023/10/03 01:17:53;;;;;;;9.75;5.57;;;;;;;24.82;48.90;100892.84;5028598;28;20044;-67
2023/10/03 01:20:28;;;;;;;7.43;4.80;;;;;;;24.85;49.06;100907.59;5053544;28;20044;-67
2023/10/03 01:22:54;;;;;;;9.50;5.07;;;;;;;24.85;48.78;100908.41;5033598;28;20045;-67
2023/10/03 01:25:27;;;;;;;8.32;5.00;;;;;;;24.89;48.82;100914.13;5050621;28;20040;-67
2023/10/03 01:27:56;;;;;;;8.95;4.68;;;;;;;24.84;49.01;100892.63;5052350;28;22113;-67
2023/10/03 01:30:22;;;;;;;8.85;4.85;;;;;;;24.85;49.04;100884.44;5057425;28;20056;-67
2023/10/03 01:32:55;;;;;;;10.88;6.25;;;;;;;24.87;48.97;100871.72;5055253;28;20067;-67
2023/10/03 01:35:22;;;;;;;7.93;5.32;;;;;;;24.88;49.02;100861.88;5057102;28;20049;-67
2023/10/03 01:37:50;;;;;;;14.02;5.53;;;;;;;24.88;48.87;100853.88;5052713;28;20064;-67
2023/10/03 01:40:17;;;;;;;11.25;5.60;;;;;;;24.83;48.76;100857.19;5035434;28;20049;-67
2023/10/03 01:42:47;;;;;;;10.40;5.65;;;;;;;24.83;48.93;100835.91;5053241;28;20048;-67
2023/10/03 01:45:15;;;;;;;11.35;5.93;;;;;;;24.84;49.15;100826.88;5032536;28;20626;-67
2023/10/03 01:47:42;;;;;;;10.30;5.50;;;;;;;24.85;48.79;100809.84;5036332;28;20082;-68
2023/10/03 01:50:08;;;;;;;9.45;6.03;;;;;;;24.87;48.81;100804.31;5038086;28;20049;-67
2023/10/03 01:52:34;;;;;;;9.43;5.28;;;;;;;24.84;48.72;100797.56;5052418;28;20102;-67
2023/10/03 01:55:00;;;;;;;10.32;5.95;;;;;;;24.85;48.85;100787.75;5050235;28;20044;-68
2023/10/03 01:57:26;;;;;;;11.82;5.57;;;;;;;24.86;48.98;100778.72;5037197;28;20437;-66
2023/10/03 01:59:53;;;;;;;10.70;5.55;;;;;;;24.84;48.96;100762.94;5054371;28;20067;-68
2023/10/03 02:02:18;;;;;;;10.80;5.68;;;;;;;24.87;48.58;100751.88;5043339;28;20398;-69
2023/10/03 02:04:44;;;;;;;9.80;4.75;;;;;;;24.85;48.74;100753.13;5047705;28;20049;-67
2023/10/03 02:07:09;;;;;;;9.32;4.85;;;;;;;24.82;48.91;100741.03;5055282;28;20048;-67
2023/10/03 02:09:35;;;;;;;9.82;5.65;;;;;;;24.82;49.15;100737.56;5051704;28;20048;-67
2023/10/03 02:12:01;;;;;;;11.48;5.85;;;;;;;24.85;48.95;100726.47;5037543;28;20795;-67
2023/10/03 02:14:28;;;;;;;11.15;5.78;;;;;;;24.81;49.09;100715.44;5055721;28;20048;-67
2023/10/03 02:16:54;;;;;;;11.32;5.25;;;;;;;24.83;48.94;100713.38;5034132;28;20044;-67
2023/10/03 02:19:20;;;;;;;10.05;4.93;;;;;;;24.80;48.81;100691.69;5049828;28;20083;-66
2023/10/03 02:21:46;;;;;;;8.45;5.53;;;;;;;24.81;48.88;100691.47;5050937;28;20041;-67
2023/10/03 02:24:13;;;;;;;9.93;5.10;;;;;;;24.82;48.95;100676.31;5054885;28;20095;-67
2023/10/03 02:26:41;;;;;;;11.88;5.68;;;;;;;24.83;48.93;100669.94;5055092;28;20032;-67
2023/10/03 02:29:06;;;;;;;10.60;5.68;;;;;;;24.83;48.86;100657.44;5057396;28;20098;-67
2023/10/03 02:31:33;;;;;;;10.10;5.82;;;;;;;24.83;48.72;100654.78;5051066;28;20495;-67
2023/10/03 02:34:01;;;;;;;12.93;5.85;;;;;;;24.84;48.64;100639.63;5059306;28;20091;-67
2023/10/03 02:36:26;;;;;;;10.57;5.85;;;;;;;24.84;48.76;100650.28;5053829;28;20049;-67
2023/10/03 02:38:52;;;;;;;10.70;5.53;;;;;;;24.85;48.81;100631.41;5040125;28;20037;-67
2023/10/03 02:41:19;;;;;;;10.43;5.65;;;;;;;24.84;48.75;100632.44;5036779;28;20083;-67
2023/10/03 02:43:47;;;;;;;15.52;6.57;;;;;;;24.83;48.76;100627.34;5051902;28;20425;-69
2023/10/03 02:46:17;;;;;;;13.57;6.68;;;;;;;24.82;48.91;100610.53;5052763;28;20028;-67
2023/10/03 02:48:49;;;;;;;15.20;6.45;;;;;;;24.85;48.69;100622.59;5037856;28;20052;-67
2023/10/03 02:51:14;;;;;;;12.20;5.82;;;;;;;24.81;48.84;100614.25;5036954;28;20186;-67
2023/10/03 02:53:40;;;;;;;15.45;6.50;;;;;;;24.80;48.66;100615.28;5056395;28;20041;-67
2023/10/03 02:56:07;;;;;;;11.23;5.88;;;;;;;24.78;48.94;100614.69;5050442;28;20060;-67
2023/10/03 02:58:33;;;;;;;12.50;6.30;;;;;;;24.80;48.66;100617.13;5053362;28;20080;-67
2023/10/03 03:00:58;;;;;;;10.60;5.70;;;;;;;24.77;48.50;100604.22;5041495;28;20079;-68
2023/10/03 03:03:32;;;;;;;11.55;6.15;;;;;;;24.85;48.53;100619.94;5037832;28;20753;-67
2023/10/03 03:06:03;;;;;;;14.93;6.18;;;;;;;24.81;48.56;100600.13;5053482;28;20037;-67
2023/10/03 03:08:29;;;;;;;12.27;7.03;;;;;;;24.80;48.85;100593.16;5044504;28;20052;-67
2023/10/03 03:10:57;;;;;;;13.38;6.45;;;;;;;24.80;48.68;100588.66;5054343;28;20057;-67
2023/10/03 03:13:25;;;;;;;13.50;6.40;;;;;;;24.80;48.72;100585.19;5040378;28;20534;-67
2023/10/03 03:15:53;;;;;;;12.95;6.68;;;;;;;24.82;48.71;100593.75;5036776;28;20486;-66
2023/10/03 03:18:20;;;;;;;13.85;6.40;;;;;;;24.82;48.49;100589.25;5053613;28;20699;-66
2023/10/03 03:20:50;;;;;;;13.07;6.55;;;;;;;24.82;48.72;100599.09;5052199;28;20099;-66
2023/10/03 03:23:17;;;;;;;13.45;6.30;;;;;;;24.84;48.49;100589.84;5057469;28;20156;-66
2023/10/03 03:25:43;;;;;;;14.07;6.35;;;;;;;24.82;48.65;100591.91;5052442;28;20125;-66
2023/10/03 03:28:14;;;;;;;14.18;6.25;;;;;;;24.80;48.73;100583.31;5052878;28;20519;-67
2023/10/03 03:30:46;;;;;;;14.45;5.53;;;;;;;24.84;48.45;100600.50;5054670;28;20049;-66
2023/10/03 03:33:20;;;;;;;12.65;6.25;;;;;;;24.81;48.56;100597.44;5052072;28;20090;-66
2023/10/03 03:35:47;;;;;;;13.13;5.97;;;;;;;24.79;48.71;100587.03;5063068;28;20135;-66
2023/10/03 03:38:20;;;;;;;15.60;6.85;;;;;;;24.79;48.70;100581.69;5057522;28;20052;-66
2023/10/03 03:40:59;;;;;;;12.25;5.70;;;;;;;24.80;48.64;100569.19;5056800;28;20171;-66
2023/10/03 03:43:25;;;;;;;18.45;6.35;;;;;;;24.83;48.61;100555.44;5054133;28;20048;-66
2023/10/03 03:45:52;;;;;;;15.20;6.60;;;;;;;24.81;48.48;100560.16;5056010;28;20053;-66
2023/10/03 03:48:21;;;;;;;13.88;6.30;;;;;;;24.79;48.51;100565.72;5058092;28;20555;-66
2023/10/03 03:50:49;;;;;;;12.68;6.60;;;;;;;24.84;48.35;100559.72;5056206;28;21130;-66
2023/10/03 03:53:16;;;;;;;13.07;6.55;;;;;;;24.79;48.42;100549.75;5055693;28;20163;-66
2023/10/03 03:55:42;;;;;;;13.05;6.07;;;;;;;24.82;48.58;100573.25;5052752;28;20107;-66
2023/10/03 03:58:14;;;;;;;14.38;6.50;;;;;;;24.81;48.78;100558.31;5057052;28;20056;-66
2023/10/03 04:00:47;;;;;;;13.57;6.07;;;;;;;24.83;48.35;100556.25;5048144;28;20487;-66
2023/10/03 04:03:13;;;;;;;12.77;6.25;;;;;;;24.81;48.37;100547.66;5056661;28;20515;-66
2023/10/03 04:05:40;;;;;;;15.55;6.40;;;;;;;24.79;48.69;100540.94;5055103;28;20044;-66
2023/10/03 04:08:06;;;;;;;14.27;6.47;;;;;;;24.82;48.32;100529.84;5051607;28;20040;-68
2023/10/03 04:10:36;;;;;;;14.30;6.25;;;;;;;24.76;48.55;100520.03;5054674;28;20052;-66
2023/10/03 04:13:07;;;;;;;14.20;6.25;;;;;;;24.80;48.65;100526.59;5051104;28;20057;-66
2023/10/03 04:15:32;;;;;;;14.45;6.88;;;;;;;24.81;48.69;100515.72;5056281;28;20048;-66
2023/10/03 04:17:58;;;;;;;12.07;6.15;;;;;;;24.82;48.55;100509.34;5050154;28;20052;-66
2023/10/03 04:20:37;;;;;;;13.80;6.60;;;;;;;24.79;48.60;100515.13;5053092;28;20060;-66
2023/10/03 04:23:03;;;;;;;13.52;6.20;;;;;;;24.82;48.52;100505.88;5053052;28;20047;-66
2023/10/03 04:25:30;;;;;;;14.65;6.60;;;;;;;24.82;48.49;100514.69;5051973;28;20099;-66
2023/10/03 04:27:56;;;;;;;12.63;6.00;;;;;;;24.80;48.61;100511.41;5052854;28;20060;-66
2023/10/03 04:30:26;;;;;;;16.10;7.68;;;;;;;24.79;48.49;100501.81;5056480;28;20052;-67
2023/10/03 04:32:53;;;;;;;14.20;6.78;;;;;;;24.80;48.59;100502.63;5051196;28;20060;-66
2023/10/03 04:35:20;;;;;;;15.18;6.65;;;;;;;24.77;48.59;100493.19;5053313;28;20078;-65
2023/10/03 04:37:51;;;;;;;14.88;6.63;;;;;;;24.82;48.59;100501.34;5048528;28;20578;-66
2023/10/03 04:40:22;;;;;;;15.73;6.90;;;;;;;24.79;48.45;100501.00;5055573;28;20036;-66
2023/10/03 04:42:53;;;;;;;14.27;6.38;;;;;;;24.81;48.58;100493.59;5054804;28;20056;-66
2023/10/03 04:45:19;;;;;;;14.38;6.95;;;;;;;24.80;48.43;100499.97;5050393;28;20118;-66
2023/10/03 04:47:47;;;;;;;16.30;6.82;;;;;;;24.80;48.34;100513.28;5048376;28;20720;-66
2023/10/03 04:50:24;;;;;;;12.25;6.60;;;;;;;24.79;48.46;100516.97;5038709;28;20159;-66
2023/10/03 04:52:50;;;;;;;15.45;6.72;;;;;;;24.81;48.45;100515.72;5052967;28;20068;-66
2023/10/03 04:55:20;;;;;;;14.55;6.82;;;;;;;24.81;48.63;100509.56;5036076;28;20056;-66
2023/10/03 04:57:51;;;;;;;14.68;7.22;;;;;;;24.81;48.57;100517.56;5056413;28;20146;-66
2023/10/03 05:00:18;;;;;;;14.27;6.70;;;;;;;24.80;48.58;100506.09;5051326;28;20494;-66
2023/10/03 05:02:50;;;;;;;12.88;6.30;;;;;;;24.78;48.51;100518.81;5054949;28;20063;-66
2023/10/03 05:05:26;;;;;;;16.88;6.60;;;;;;;24.81;48.45;100506.91;5054629;28;20060;-66
2023/10/03 05:07:54;;;;;;;14.77;6.85;;;;;;;24.76;48.23;100498.75;5059091;28;20182;-66
2023/10/03 05:10:20;;;;;;;13.48;6.30;;;;;;;24.76;48.50;100499.56;5052305;28;20490;-66
2023/10/03 05:12:47;;;;;;;13.27;6.45;;;;;;;24.80;48.38;100502.63;5050058;28;20040;-67
2023/10/03 05:15:14;;;;;;;14.38;6.40;;;;;;;24.80;48.35;100503.44;5047378;28;20072;-67
2023/10/03 05:17:41;;;;;;;15.32;6.85;;;;;;;24.80;48.39;100510.59;5050958;28;20052;-67
2023/10/03 05:20:07;;;;;;;13.68;7.43;;;;;;;24.82;48.57;100516.53;5052441;28;20059;-66
2023/10/03 05:22:33;;;;;;;13.10;5.88;;;;;;;24.79;48.53;100501.00;5052479;28;20060;-67
2023/10/03 05:25:00;;;;;;;14.70;6.82;;;;;;;24.81;48.49;100512.22;5054199;28;20037;-67
2023/10/03 05:27:28;;;;;;;15.68;6.65;;;;;;;24.81;48.41;100509.56;5051015;28;20045;-66
2023/10/03 05:29:56;;;;;;;14.75;6.53;;;;;;;24.83;48.57;100523.47;5052264;28;20051;-67
2023/10/03 05:32:21;;;;;;;13.02;6.43;;;;;;;24.77;48.66;100519.81;5057687;28;20048;-67
2023/10/03 05:34:48;;;;;;;12.40;6.78;;;;;;;24.76;48.60;100517.38;5058511;28;20102;-67
2023/10/03 05:37:13;;;;;;;14.68;7.85;;;;;;;24.77;48.58;100513.69;5056476;28;20037;-65
2023/10/03 05:39:39;;;;;;;13.05;6.40;;;;;;;24.80;48.59;100519.41;5054757;28;20540;-67
2023/10/03 05:42:05;;;;;;;15.35;6.70;;;;;;;24.76;48.62;100507.53;5060483;28;20063;-67
2023/10/03 05:44:30;;;;;;;12.52;6.63;;;;;;;24.79;48.64;100508.97;5053224;28;20048;-67
2023/10/03 05:46:56;;;;;;;14.05;6.32;;;;;;;24.81;48.41;100517.56;5051268;28;20032;-67
2023/10/03 05:49:23;;;;;;;13.75;5.78;;;;;;;24.77;48.33;100521.66;5048103;28;20071;-66
2023/10/03 05:51:49;;;;;;;12.57;6.35;;;;;;;24.80;48.28;100523.91;5054018;28;20056;-66
2023/10/03 05:54:15;;;;;;;14.07;6.60;;;;;;;24.82;48.44;100512.00;5049142;28;20076;-66
2023/10/03 05:56:40;;;;;;;14.32;6.72;;;;;;;24.81;48.57;100509.56;5056171;28;20146;-66
2023/10/03 05:59:07;;;;;;;14.07;6.18;;;;;;;24.74;48.62;100498.97;5051191;28;20495;-66
2023/10/03 06:01:32;;;;;;;13.55;6.47;;;;;;;24.80;48.33;100507.94;5051077;28;20060;-67
2023/10/03 06:03:58;;;;;;;15.73;6.38;;;;;;;24.79;48.52;100506.31;5049953;28;20063;-66
2023/10/03 06:06:23;;;;;;;12.35;6.72;;;;;;;24.82;48.40;100530.66;5037532;28;20037;-66
2023/10/03 06:08:49;;;;;;;14.90;6.70;;;;;;;24.81;48.55;100531.69;5037261;28;20044;-67
2023/10/03 06:11:16;;;;;;;12.07;5.97;;;;;;;24.80;48.56;100537.25;5058058;28;20656;-66
2023/10/03 06:13:44;;;;;;;14.70;6.60;;;;;;;24.82;48.47;100543.16;5054585;28;20052;-67
2023/10/03 06:16:14;;;;;;;14.77;6.70;;;;;;;24.77;48.60;100549.13;5042908;28;20123;-66
2023/10/03 06:18:44;;;;;;;16.92;6.97;;;;;;;24.83;48.64;100547.44;5050597;28;20044;-66
2023/10/03 06:21:10;;;;;;;13.80;6.18;;;;;;;24.82;48.57;100545.81;5045433;28;20129;-66
2023/10/03 06:23:37;;;;;;;11.40;5.70;;;;;;;24.80;48.35;100562.03;5044072;28;20064;-66
2023/10/03 06:26:03;;;;;;;15.65;6.47;;;;;;;24.81;48.35;100573.50;5052857;28;20041;-66
2023/10/03 06:28:29;;;;;;;11.82;6.13;;;;;;;24.79;48.60;100556.91;5054668;28;20510;-66
2023/10/03 06:30:55;;;;;;;16.70;7.00;;;;;;;24.82;48.62;100559.13;5058388;28;20128;-66
2023/10/03 06:33:21;;;;;;;13.70;6.00;;;;;;;24.79;48.35;100555.06;5053350;28;20551;-66
2023/10/03 06:35:51;;;;;;;11.60;5.97;;;;;;;24.82;48.39;100565.28;5058326;28;20041;-66
2023/10/03 06:38:20;;;;;;;11.27;5.80;;;;;;;24.81;48.57;100555.66;5053127;28;20048;-66
2023/10/03 06:40:46;;;;;;;11.27;5.87;;;;;;;24.79;48.42;100567.56;5052198;28;20052;-67
2023/10/03 06:43:12;;;;;;;14.27;6.25;;;;;;;24.80;48.67;100567.34;5050084;28;20057;-66
2023/10/03 06:45:38;;;;;;;12.73;5.88;;;;;;;24.83;48.43;100560.75;5020016;28;20056;-66
2023/10/03 06:48:04;;;;;;;12.10;5.70;;;;;;;24.80;48.45;100571.84;5032726;28;20842;-66
2023/10/03 06:50:32;;;;;;;12.77;6.38;;;;;;;24.79;48.53;100584.34;5042345;28;20053;-67
2023/10/03 06:52:59;;;;;;;14.30;6.38;;;;;;;24.78;48.60;100588.06;5033673;28;20640;-66
2023/10/03 06:55:25;;;;;;;13.35;6.20;;;;;;;24.82;48.28;100599.91;5035479;28;20053;-67
2023/10/03 06:57:50;;;;;;;16.85;6.80;;;;;;;24.83;48.39;100595.38;5015152;28;21397;-66
2023/10/03 07:00:17;;;;;;;11.48;6.05;;;;;;;24.82;48.59;100607.06;5037691;28;20045;-66
2023/10/03 07:02:42;;;;;;;13.88;6.45;;;;;;;24.81;48.48;100611.59;5024645;28;20053;-67
2023/10/03 07:05:08;;;;;;;12.73;6.03;;;;;;;24.82;48.73;100612.41;5038568;28;20164;-65
2023/10/03 07:07:34;;;;;;;13.45;5.93;;;;;;;24.84;48.55;100619.13;5036034;28;20507;-66
2023/10/03 07:10:00;;;;;;;12.00;5.90;;;;;;;24.82;48.45;100617.72;5032877;28;21374;-66
2023/10/03 07:12:26;;;;;;;9.70;5.00;;;;;;;24.81;48.74;100629.41;5034091;28;20702;-66
2023/10/03 07:14:51;;;;;;;11.35;5.88;;;;;;;24.78;48.60;100625.34;5031625;28;20048;-66
2023/10/03 07:17:17;;;;;;;13.18;5.72;;;;;;;24.70;48.81;100610.44;5033370;28;20045;-66
2023/10/03 07:19:48;;;;;;;10.77;5.30;;;;;;;24.80;48.53;100638.44;5028698;28;20049;-67
2023/10/03 07:22:20;;;;;;;13.95;5.78;;;;;;;24.82;48.56;100631.84;5030561;28;20613;-66
2023/10/03 07:24:45;;;;;;;15.25;6.15;;;;;;;24.77;48.65;100641.50;5030587;28;20049;-66
2023/10/03 07:27:15;;;;;;;11.27;5.50;;;;;;;24.80;48.44;100649.91;5031562;28;20048;-66
2023/10/03 07:29:43;;;;;;;12.57;6.25;;;;;;;24.80;48.65;100649.91;5032127;28;20491;-66
2023/10/03 07:32:13;;;;;;;13.25;5.88;;;;;;;24.79;48.80;100644.78;5034302;28;20148;-66
2023/10/03 07:34:45;;;;;;;11.93;5.25;;;;;;;24.81;48.52;100658.72;5033305;28;20378;-65
2023/10/03 07:37:10;;;;;;;12.60;5.60;;;;;;;24.81;48.49;100669.34;5030999;28;20553;-65
2023/10/03 07:39:38;;;;;;;12.38;5.95;;;;;;;24.76;48.58;100663.84;5036252;28;20060;-65
2023/10/03 07:42:04;;;;;;;10.80;5.13;;;;;;;24.79;48.51;100672.25;5033183;28;20068;-65
2023/10/03 07:44:30;;;;;;;14.25;6.03;;;;;;;24.82;48.39;100677.13;5050175;28;20049;-66
2023/10/03 07:46:56;;;;;;;12.10;5.13;;;;;;;24.80;48.45;100673.88;5055938;28;20088;-65
2023/10/03 07:49:22;;;;;;;11.10;5.75;;;;;;;24.77;48.81;100682.25;5054599;28;20490;-65
2023/10/03 07:51:50;;;;;;;9.65;4.95;;;;;;;24.82;48.54;100694.97;5056467;28;20048;-65
2023/10/03 07:54:19;;;;;;;13.20;5.30;;;;;;;24.82;48.77;100710.94;5054095;28;20094;-65
2023/10/03 07:56:44;;;;;;;9.15;5.07;;;;;;;24.81;48.48;100714.63;5054020;28;20055;-66
2023/10/03 07:59:10;;;;;;;9.98;5.00;;;;;;;24.81;48.82;100722.63;5053574;28;20052;-66
2023/10/03 08:01:38;;;;;;;11.32;5.38;;;;;;;24.80;48.50;100731.66;5052330;28;20102;-66
2023/10/03 08:04:12;;;;;;;11.27;5.03;;;;;;;24.80;48.63;100736.97;5052940;28;20052;-66
2023/10/03 08:06:39;;;;;;;11.80;5.57;;;;;;;24.81;48.65;100746.59;5053208;28;20067;-66
2023/10/03 08:09:06;;;;;;;9.80;4.72;;;;;;;24.79;48.81;100751.31;5052812;28;20040;-66
2023/10/03 08:11:32;;;;;;;10.23;4.68;;;;;;;24.80;49.02;100766.25;5052240;28;20430;-66
2023/10/03 08:13:59;;;;;;;16.08;5.00;;;;;;;24.83;48.64;100787.13;5051266;28;20754;-67
2023/10/03 08:16:27;;;;;;;9.27;4.60;;;;;;;24.80;48.78;100783.06;5053675;28;20048;-67
2023/10/03 08:18:58;;;;;;;10.70;4.88;;;;;;;24.85;48.50;100782.41;5053183;28;20059;-66
2023/10/03 08:21:28;;;;;;;9.23;4.93;;;;;;;24.82;48.52;100782.84;5053599;28;20745;-67
2023/10/03 08:23:58;;;;;;;9.98;5.25;;;;;;;24.83;48.70;100813.78;5055156;28;20043;-67
2023/10/03 08:26:25;;;;;;;10.05;5.75;;;;;;;24.86;48.69;100824.81;5049578;28;20095;-67
2023/10/03 08:29:04;;;;;;;9.68;4.47;;;;;;;24.83;48.73;100825.25;5054971;28;20048;-67
2023/10/03 08:31:31;;;;;;;9.07;4.55;;;;;;;24.82;48.90;100828.94;5057381;28;20118;-67
2023/10/03 08:33:56;;;;;;;12.02;5.13;;;;;;;24.84;48.50;100829.53;5052051;28;20061;-67
2023/10/03 08:36:23;;;;;;;9.48;4.72;;;;;;;24.84;48.72;100832.19;5052737;28;20076;-67
2023/10/03 08:38:49;;;;;;;9.10;4.30;;;;;;;24.84;48.62;100842.03;5053230;28;20045;-67
2023/10/03 08:41:31;;;;;;;9.20;4.28;;;;;;;24.80;49.14;100860.28;5049742;28;20048;-67
2023/10/03 08:44:00;;;;;;;8.73;4.45;;;;;;;24.83;48.79;100880.34;5050563;28;20045;-67
2023/10/03 08:46:29;;;;;;;7.70;4.18;;;;;;;24.82;48.58;100889.38;5056584;28;20112;-67
2023/10/03 08:49:00;;;;;;;7.63;4.20;;;;;;;24.79;48.68;100908.44;5052995;28;20541;-66
2023/10/03 08:51:32;;;;;;;8.60;4.28;;;;;;;24.80;48.66;100902.09;5049592;28;20048;-67
2023/10/03 08:54:09;;;;;;;8.43;4.32;;;;;;;24.81;48.72;100899.22;5053444;28;20056;-67
2023/10/03 08:56:35;;;;;;;9.88;4.22;;;;;;;24.81;48.66;100903.72;5052489;28;20131;-67
2023/10/03 08:59:07;;;;;;;7.00;3.95;;;;;;;24.83;48.87;100922.97;5052718;28;20044;-67
2023/10/03 09:01:43;;;;;;;9.27;3.97;;;;;;;24.82;48.86;100938.13;5052293;28;20066;-66
2023/10/03 09:04:15;;;;;;;8.73;3.90;;;;;;;24.77;48.55;100931.78;5048819;28;20055;-67
2023/10/03 09:06:47;;;;;;;8.20;4.45;;;;;;;24.81;48.75;100944.50;5053726;28;20056;-67
2023/10/03 09:09:13;;;;;;;8.05;3.83;;;;;;;24.82;48.76;100947.97;5054752;28;20045;-67
2023/10/03 09:11:42;;;;;;;6.88;4.07;;;;;;;24.84;48.60;100953.91;5059449;28;20443;-67
2023/10/03 09:14:09;;;;;;;9.30;4.35;;;;;;;24.81;48.77;100957.00;5050501;28;20900;-66
2023/10/03 09:16:39;;;;;;;6.20;3.45;;;;;;;24.84;48.62;100961.88;5041282;28;20044;-66
2023/10/03 09:19:06;;;;;;;7.15;3.88;;;;;;;24.82;48.66;100979.94;5052639;28;20057;-66
2023/10/03 09:21:33;;;;;;;7.22;4.35;;;;;;;24.81;48.67;100995.09;5053473;28;20083;-67
2023/10/03 09:24:01;;;;;;;8.75;3.67;;;;;;;24.82;48.76;100996.72;5052101;28;20052;-67
2023/10/03 09:26:47;;;;;;;7.65;3.30;;;;;;;24.82;48.70;101007.38;5022922;28;20043;-67
2023/10/03 09:29:19;;;;;;;7.65;3.42;;;;;;;24.81;48.79;101012.91;5052307;28;20430;-67
2023/10/03 09:31:47;;;;;;;6.57;3.95;;;;;;;24.84;48.50;101023.16;5055882;28;20048;-67
2023/10/03 09:34:14;;;;;;;6.43;3.22;;;;;;;24.83;48.59;101035.66;5052591;28;20502;-67
2023/10/03 09:36:40;;;;;;;8.73;3.67;;;;;;;24.86;48.64;101045.06;5035651;28;20140;-67
2023/10/03 09:39:21;;;;;;;7.22;3.33;;;;;;;24.85;48.50;101048.75;5049734;28;21068;-67
2023/10/03 09:41:57;;;;;;;5.82;3.15;;;;;;;24.80;48.56;101057.38;5059904;28;20056;-67
2023/10/03 09:44:32;;;;;;;7.82;2.83;;;;;;;24.80;48.63;101060.03;5056162;28;20090;-66
2023/10/03 09:47:06;;;;;;;6.65;3.80;;;;;;;24.80;48.74;101059.22;5057274;28;20056;-67
2023/10/03 09:49:38;;;;;;;6.85;3.22;;;;;;;24.80;48.70;101068.03;5061023;28;20416;-67
2023/10/03 09:52:08;;;;;;;4.80;2.72;;;;;;;24.82;48.45;101083.81;5058782;28;20041;-67
2023/10/03 09:54:36;;;;;;;6.55;3.55;;;;;;;24.82;48.52;101089.13;5062248;28;20109;-67
2023/10/03 09:57:15;;;;;;;6.30;3.30;;;;;;;24.78;48.91;101104.72;5056151;28;21708;-67
2023/10/03 09:59:42;;;;;;;5.90;3.45;;;;;;;24.80;48.54;101129.28;5060464;28;20470;-67
2023/10/03 10:02:12;;;;;;;4.75;3.03;;;;;;;24.82;48.43;101131.75;5055001;28;20407;-67
2023/10/03 10:04:40;;;;;;;5.97;3.10;;;;;;;24.82;48.61;101123.75;5058534;28;20632;-67
2023/10/03 10:07:17;;;;;;;5.90;3.00;;;;;;;24.81;48.65;101130.09;5057523;28;20570;-67
2023/10/03 10:09:54;;;;;;;7.13;3.13;;;;;;;24.79;48.63;101127.66;5055465;28;20431;-67
2023/10/03 10:12:21;;;;;;;5.03;2.78;;;;;;;24.79;48.43;101137.50;5058770;28;20398;-67
2023/10/03 10:15:00;;;;;;;5.53;3.20;;;;;;;24.82;48.35;101142.41;5060474;28;20056;-67
2023/10/03 10:17:51;;;;;;;4.75;2.85;;;;;;;24.82;48.49;101153.06;5053730;28;21835;-67
2023/10/03 10:20:27;;;;;;;6.28;2.75;;;;;;;24.79;48.44;101154.28;5056501;28;20063;-67
2023/10/03 10:23:03;;;;;;;3.83;2.47;;;;;;;24.81;48.44;101172.72;5058893;28;20048;-67
2023/10/03 10:25:30;;;;;;;5.75;2.92;;;;;;;24.82;48.48;101187.69;5056809;28;20506;-67
2023/10/03 10:28:07;;;;;;;6.28;2.75;;;;;;;24.83;48.22;101189.31;5057510;28;20047;-66
2023/10/03 10:30:36;;;;;;;4.25;2.78;;;;;;;24.78;48.37;101189.94;5057656;28;20044;-67
2023/10/03 10:33:14;;;;;;;;;;;;;;;24.82;48.34;101203.66;5059914;28;20044;-67
2023/10/03 10:35:49;;;;;;;5.57;2.50;;;;;;;24.79;48.43;101212.88;5054729;28;20339;-67
2023/10/03 10:38:15;;;;;;;6.50;2.97;;;;;;;24.80;48.57;101225.19;5052625;28;20553;-67
2023/10/03 10:41:17;;;;;;;4.72;2.45;;;;;;;24.81;48.33;101224.16;5056082;28;20051;-67
2023/10/03 10:44:13;;;;;;;5.72;2.60;;;;;;;24.80;48.44;101232.34;5052685;28;20183;-66
2023/10/03 10:46:47;;;;;;;6.28;2.70;;;;;;;24.83;48.50;101231.94;5057776;28;20052;-67
2023/10/03 10:49:31;;;;;;;5.07;2.35;;;;;;;24.82;48.30;101235.63;5041643;28;20049;-67
2023/10/03 10:52:09;;;;;;;4.75;2.30;;;;;;;24.83;48.13;101234.59;5053608;28;20051;-67
2023/10/03 10:54:39;;;;;;;4.00;2.40;;;;;;;24.82;48.21;101231.13;5056586;28;20048;-66
2023/10/03 10:57:06;;;;;;;5.13;2.55;;;;;;;24.81;48.21;101239.31;5057910;28;20830;-66
2023/10/03 10:59:40;;;;;;;5.63;2.35;;;;;;;24.80;48.12;101235.81;5054579;28;20593;-67
2023/10/03 11:02:21;;;;;;;4.85;2.40;;;;;;;24.81;48.37;101241.97;5059289;28;20135;-68
2023/10/03 11:04:58;;;;;;;4.70;2.17;;;;;;;24.86;48.26;101248.31;5055301;28;20547;-67
2023/10/03 11:07:28;;;;;;;4.80;2.42;;;;;;;24.82;48.22;101246.28;5051174;28;20119;-68
2023/10/03 11:10:03;;;;;;;4.70;2.35;;;;;;;24.80;48.12;101254.47;5050747;28;20044;-67
2023/10/03 11:12:30;;;;;;;4.28;2.17;;;;;;;24.83;47.97;101258.56;5038960;28;20086;-66
2023/10/03 11:14:56;;;;;;;2.83;1.85;;;;;;;24.77;48.42;101262.03;5054911;28;20040;-67
2023/10/03 11:17:23;;;;;;;4.03;1.92;;;;;;;24.74;48.50;101271.25;5057900;28;20049;-67
2023/10/03 11:19:50;;;;;;;3.17;2.20;;;;;;;24.75;48.48;101274.72;5041448;28;20052;-67
2023/10/03 11:22:17;;;;;;;2.90;2.10;;;;;;;24.74;48.53;101276.56;5056531;28;20048;-67
2023/10/03 11:24:44;;;;;;;3.67;2.28;;;;;;;24.67;48.60;101287.22;5055707;28;20612;-67
2023/10/03 11:27:26;;;;;;;5.97;2.20;;;;;;;24.68;48.69;101296.84;5058819;28;20247;-67
2023/10/03 11:29:52;;;;;;;4.40;2.22;;;;;;;24.67;48.36;101283.72;5059073;28;20054;-67
2023/10/03 11:32:30;;;;;;;2.95;1.85;;;;;;;24.63;48.45;101287.81;5059008;28;20040;-67
2023/10/03 11:34:57;;;;;;;4.07;1.85;;;;;;;24.66;48.55;101285.56;5053652;28;20052;-67